createdAt,value
2023-11-12T00:02:44.458Z,7.08
2023-11-12T00:05:46.988Z,7.13
2023-11-12T00:08:49.848Z,7.08
2023-11-12T00:11:52.767Z,7.11
2023-11-12T00:14:55.487Z,7.09
2023-11-12T00:17:58.156Z,7.20
2023-11-12T00:21:00.691Z,7.17
2023-11-12T00:24:04.230Z,7.14
2023-11-12T00:27:06.759Z,7.09
2023-11-12T00:30:10.452Z,7.12
2023-11-12T00:33:13.126Z,7.06
2023-11-12T00:36:15.769Z,7.03
2023-11-12T00:39:18.378Z,6.99
2023-11-12T00:42:20.908Z,6.98
2023-11-12T00:45:23.992Z,6.97
2023-11-12T00:48:27.681Z,7.01
2023-11-12T00:51:30.457Z,6.94
2023-11-12T00:54:33.845Z,6.83
2023-11-12T00:57:36.372Z,6.81
2023-11-12T01:00:42.624Z,6.74
2023-11-12T01:03:45.670Z,6.84
2023-11-12T01:06:48.209Z,6.73
2023-11-12T01:09:51.485Z,6.75
2023-11-12T01:12:54.023Z,6.67
2023-11-12T01:15:57.352Z,6.68
2023-11-12T01:19:00.306Z,6.67
2023-11-12T01:22:03.000Z,6.63
2023-11-12T01:25:06.266Z,6.60
2023-11-12T01:28:08.846Z,6.54
2023-11-12T01:31:12.136Z,6.51
2023-11-12T01:34:15.570Z,6.44
2023-11-12T01:37:18.522Z,6.51
2023-11-12T01:40:21.668Z,6.49
2023-11-12T01:43:24.181Z,6.46
2023-11-12T01:46:30.926Z,6.41
2023-11-12T01:49:36.393Z,6.38
2023-11-12T01:52:40.251Z,6.30
2023-11-12T01:55:45.484Z,6.35
2023-11-12T01:58:53.653Z,6.25
2023-11-12T02:01:56.200Z,6.23
2023-11-12T02:04:59.436Z,6.20
2023-11-12T02:08:04.571Z,6.24
2023-11-12T02:11:10.317Z,6.11
2023-11-12T02:14:13.146Z,6.14
2023-11-12T02:17:15.713Z,6.08
2023-11-12T02:20:18.384Z,6.09
2023-11-12T02:23:21.156Z,5.96
2023-11-12T02:26:23.687Z,5.93
2023-11-12T02:29:26.315Z,5.92
2023-11-12T02:32:33.868Z,5.93
2023-11-12T02:35:38.202Z,5.91
2023-11-12T02:38:41.860Z,5.84
2023-11-12T02:41:46.037Z,5.83
2023-11-12T02:44:49.674Z,5.84
2023-11-12T02:47:52.268Z,5.81
2023-11-12T02:50:55.671Z,5.75
2023-11-12T02:53:58.230Z,5.78
2023-11-12T02:57:00.770Z,5.76
2023-11-12T03:00:03.573Z,5.82
2023-11-12T03:03:06.201Z,5.70
2023-11-12T03:06:08.899Z,5.74
2023-11-12T03:09:11.467Z,5.68
2023-11-12T03:12:14.071Z,5.65
2023-11-12T03:15:18.067Z,5.66
2023-11-12T03:18:20.801Z,5.56
2023-11-12T03:21:24.180Z,5.50
2023-11-12T03:24:26.732Z,5.52
2023-11-12T03:27:31.149Z,5.52
2023-11-12T03:30:33.660Z,5.50
2023-11-12T03:33:36.518Z,5.55
2023-11-12T03:36:39.211Z,5.54
2023-11-12T03:39:42.022Z,5.63
2023-11-12T03:42:45.054Z,5.58
2023-11-12T03:45:47.733Z,5.60
2023-11-12T03:48:50.224Z,5.61
2023-11-12T03:51:53.401Z,5.53
2023-11-12T03:54:55.964Z,5.60
2023-11-12T03:57:58.570Z,5.70
2023-11-12T04:01:01.297Z,5.71
2023-11-12T04:04:04.294Z,5.76
2023-11-12T04:07:06.945Z,5.73
2023-11-12T04:10:12.720Z,5.68
2023-11-12T04:13:15.373Z,5.63
2023-11-12T04:16:17.989Z,5.58
2023-11-12T04:19:20.585Z,5.61
2023-11-12T04:22:24.536Z,5.53
2023-11-12T04:25:27.076Z,5.53
2023-11-12T04:28:30.238Z,5.52
2023-11-12T04:31:33.104Z,5.48
2023-11-12T04:34:35.670Z,5.44
2023-11-12T04:37:39.332Z,5.43
2023-11-12T04:40:41.835Z,5.38
2023-11-12T04:43:45.055Z,5.33
2023-11-12T04:46:49.217Z,5.31
2023-11-12T04:49:53.213Z,5.31
2023-11-12T04:52:55.682Z,5.38
2023-11-12T04:55:58.200Z,5.45
2023-11-12T04:59:00.844Z,5.42
2023-11-12T05:02:03.987Z,5.44
2023-11-12T05:05:08.224Z,5.43
2023-11-12T05:08:10.721Z,5.38
2023-11-12T05:11:13.250Z,5.36
2023-11-12T05:14:15.746Z,5.41
2023-11-12T05:17:18.261Z,5.41
2023-11-12T05:20:20.843Z,5.41
2023-11-12T05:23:23.321Z,5.43
2023-11-12T05:26:25.889Z,5.37
2023-11-12T05:29:28.359Z,5.48
2023-11-12T05:32:30.961Z,5.47
2023-11-12T05:35:33.508Z,5.41
2023-11-12T05:38:35.995Z,5.49
2023-11-12T05:41:38.469Z,5.46
2023-11-12T05:44:41.032Z,5.38
2023-11-12T05:47:43.553Z,5.34
2023-11-12T05:50:46.501Z,5.26
2023-11-12T05:53:49.266Z,5.27
2023-11-12T05:56:51.783Z,5.32
2023-11-12T05:59:54.353Z,5.35
2023-11-12T06:02:57.310Z,5.33
2023-11-12T06:05:59.874Z,5.36
2023-11-12T06:09:02.433Z,5.47
2023-11-12T06:12:06.748Z,5.51
2023-11-12T06:15:10.983Z,5.43
2023-11-12T06:18:13.889Z,5.40
2023-11-12T06:21:16.697Z,5.35
2023-11-12T06:24:19.324Z,5.34
2023-11-12T06:27:22.002Z,5.32
2023-11-12T06:30:24.578Z,5.39
2023-11-12T06:33:27.298Z,5.36
2023-11-12T06:36:29.919Z,5.45
2023-11-12T06:39:32.547Z,5.43
2023-11-12T06:42:35.241Z,5.50
2023-11-12T06:45:37.862Z,5.50
2023-11-12T06:48:41.053Z,5.58
2023-11-12T06:51:43.808Z,5.65
2023-11-12T06:54:46.411Z,5.66
2023-11-12T06:57:48.985Z,5.68
2023-11-12T07:00:52.207Z,5.73
2023-11-12T07:03:55.108Z,5.81
2023-11-12T07:07:06.419Z,5.90
2023-11-12T07:10:16.375Z,5.91
2023-11-12T07:13:18.834Z,5.95
2023-11-12T07:16:21.791Z,5.95
2023-11-12T07:19:25.930Z,5.92
2023-11-12T07:22:29.453Z,6.06
2023-11-12T07:25:31.988Z,6.10
2023-11-12T07:28:34.557Z,6.16
2023-11-12T07:31:37.131Z,6.23
2023-11-12T07:34:39.678Z,6.29
2023-11-12T07:37:42.406Z,6.33
2023-11-12T07:40:44.965Z,6.38
2023-11-12T07:43:47.435Z,6.41
2023-11-12T07:46:50.924Z,6.42
2023-11-12T07:49:54.070Z,6.50
2023-11-12T07:52:56.630Z,6.48
2023-11-12T07:55:59.108Z,6.49
2023-11-12T07:59:01.627Z,6.55
2023-11-12T08:02:04.267Z,6.58
2023-11-12T08:05:09.506Z,6.62
2023-11-12T08:08:12.172Z,6.69
2023-11-12T08:11:14.788Z,6.69
2023-11-12T08:14:17.285Z,6.65
2023-11-12T08:17:19.877Z,6.74
2023-11-12T08:20:22.344Z,6.70
2023-11-12T08:23:24.820Z,6.77
2023-11-12T08:26:30.827Z,6.89
2023-11-12T08:29:33.635Z,6.84
2023-11-12T08:32:36.695Z,6.82
2023-11-12T08:35:40.328Z,6.89
2023-11-12T08:38:42.893Z,7.00
2023-11-12T08:41:48.359Z,7.10
2023-11-12T08:44:51.242Z,7.07
2023-11-12T08:47:53.754Z,7.22
2023-11-12T08:50:56.312Z,7.12
2023-11-12T08:53:58.957Z,7.20
2023-11-12T08:57:04.391Z,7.24
2023-11-12T09:00:08.525Z,7.19
2023-11-12T09:03:11.216Z,7.25
2023-11-12T09:06:13.772Z,7.35
2023-11-12T09:09:18.791Z,7.38
2023-11-12T09:12:21.395Z,7.38
2023-11-12T09:15:23.914Z,7.42
2023-11-12T09:18:28.704Z,7.51
2023-11-12T09:21:32.276Z,7.54
2023-11-12T09:24:34.805Z,7.57
2023-11-12T09:27:37.404Z,7.58
2023-11-12T09:30:49.239Z,7.70
2023-11-12T09:33:59.893Z,7.73
2023-11-12T09:37:03.563Z,7.77
2023-11-12T09:40:11.754Z,7.74
2023-11-12T09:43:15.452Z,7.84
2023-11-12T09:46:20.674Z,7.82
2023-11-12T09:49:23.828Z,7.93
2023-11-12T09:52:26.845Z,7.93
2023-11-12T09:55:29.326Z,8.00
2023-11-12T09:58:31.812Z,8.06
2023-11-12T10:01:35.619Z,8.20
2023-11-12T10:04:43.315Z,8.29
2023-11-12T10:07:47.171Z,8.27
2023-11-12T10:10:49.764Z,8.37
2023-11-12T10:13:52.903Z,8.39
2023-11-12T10:17:08.881Z,8.35
2023-11-12T10:20:20.531Z,8.42
2023-11-12T10:23:32.619Z,8.53
2023-11-12T10:26:36.936Z,8.49
2023-11-12T10:29:40.788Z,8.62
2023-11-12T10:32:43.358Z,8.74
2023-11-12T10:35:47.760Z,8.71
2023-11-12T10:38:51.078Z,8.72
2023-11-12T10:41:53.692Z,8.76
2023-11-12T10:44:58.318Z,8.71
2023-11-12T10:48:05.427Z,8.85
2023-11-12T10:51:09.249Z,8.97
2023-11-12T10:54:15.134Z,9.09
2023-11-12T10:57:24.744Z,9.18
2023-11-12T11:00:27.871Z,9.16
2023-11-12T11:03:32.606Z,8.99
2023-11-12T11:06:37.278Z,8.98
2023-11-12T11:09:40.094Z,9.05
2023-11-12T11:12:44.009Z,9.11
2023-11-12T11:15:57.180Z,9.11
2023-11-12T11:19:00.669Z,9.19
2023-11-12T11:22:32.886Z,9.19
2023-11-12T11:25:35.770Z,9.14
2023-11-12T11:28:38.236Z,9.25
2023-11-12T11:32:09.833Z,9.19
2023-11-12T11:35:19.222Z,9.21
2023-11-12T11:38:25.356Z,9.13
2023-11-12T11:41:27.854Z,9.25
2023-11-12T11:44:35.455Z,9.18
2023-11-12T11:47:38.076Z,9.27
2023-11-12T11:50:46.827Z,9.32
2023-11-12T11:53:50.164Z,9.33
2023-11-12T11:56:53.728Z,9.40
2023-11-12T11:59:57.639Z,9.46
2023-11-12T12:03:02.503Z,9.39
2023-11-12T12:06:24.682Z,9.55
2023-11-12T12:09:27.956Z,9.72
2023-11-12T12:12:31.238Z,9.65
2023-11-12T12:15:34.597Z,9.77
2023-11-12T12:18:37.422Z,9.85
2023-11-12T12:21:48.305Z,9.99
2023-11-12T12:24:54.498Z,10.08
2023-11-12T12:27:57.106Z,10.02
2023-11-12T12:30:59.769Z,10.46
2023-11-12T12:34:10.930Z,10.58
2023-11-12T12:37:20.756Z,10.74
2023-11-12T12:40:29.699Z,10.93
2023-11-12T12:43:51.937Z,11.33
2023-11-12T12:46:54.491Z,11.50
2023-11-12T12:49:59.634Z,11.76
2023-11-12T12:53:16.569Z,11.72
2023-11-12T12:56:20.308Z,11.58
2023-11-12T12:59:22.944Z,11.48
2023-11-12T13:02:25.616Z,11.99
2023-11-12T13:05:28.139Z,12.31
2023-11-12T13:08:30.695Z,12.81
2023-11-12T13:11:33.144Z,12.59
2023-11-12T13:14:35.676Z,12.12
2023-11-12T13:17:39.369Z,12.08
2023-11-12T13:20:43.702Z,12.58
2023-11-12T13:23:46.208Z,12.70
2023-11-12T13:26:49.296Z,12.68
2023-11-12T13:29:52.211Z,12.56
2023-11-12T13:32:55.993Z,12.63
2023-11-12T13:36:01.276Z,12.21
2023-11-12T13:39:10.892Z,12.65
2023-11-12T13:42:13.461Z,12.24
2023-11-12T13:45:19.310Z,12.79
2023-11-12T13:48:21.981Z,12.36
2023-11-12T13:51:25.640Z,12.54
2023-11-12T13:54:28.244Z,12.33
2023-11-12T13:57:33.511Z,11.97
2023-11-12T14:00:37.128Z,12.06
2023-11-12T14:03:41.943Z,12.25
2023-11-12T14:06:48.424Z,12.37
2023-11-12T14:09:51.052Z,12.10
2023-11-12T14:12:54.447Z,11.90
2023-11-12T14:15:59.209Z,12.04
2023-11-12T14:19:01.922Z,12.26
2023-11-12T14:22:05.604Z,12.13
2023-11-12T14:25:12.265Z,11.93
2023-11-12T14:28:14.877Z,11.83
2023-11-12T14:31:21.594Z,11.43
2023-11-12T14:34:24.712Z,11.13
2023-11-12T14:37:27.427Z,10.70
2023-11-12T14:40:30.036Z,10.59
2023-11-12T14:43:38.508Z,10.44
2023-11-12T14:46:41.539Z,10.26
2023-11-12T14:49:47.256Z,10.14
2023-11-12T14:52:52.080Z,9.88
2023-11-12T14:55:55.343Z,9.65
2023-11-12T14:58:58.336Z,9.34
2023-11-12T15:02:00.989Z,8.95
2023-11-12T15:05:07.009Z,8.57
2023-11-12T15:08:10.686Z,8.20
2023-11-12T15:11:13.890Z,7.88
2023-11-12T15:14:16.579Z,7.57
2023-11-12T15:17:22.013Z,7.38
2023-11-12T15:20:24.757Z,7.13
2023-11-12T15:23:29.333Z,6.96
2023-11-12T15:26:32.995Z,6.67
2023-11-12T15:29:35.797Z,6.43
2023-11-12T15:32:38.459Z,6.34
2023-11-12T15:35:41.093Z,6.22
2023-11-12T15:38:43.730Z,6.12
2023-11-12T15:41:46.282Z,5.92
2023-11-12T15:44:50.654Z,5.91
2023-11-12T15:47:53.890Z,5.80
2023-11-12T15:50:56.810Z,5.69
2023-11-12T15:54:01.285Z,5.55
2023-11-12T15:57:04.509Z,5.40
2023-11-12T16:00:09.545Z,5.28
2023-11-12T16:03:18.610Z,5.18
2023-11-12T16:06:21.869Z,5.10
2023-11-12T16:09:24.444Z,5.01
2023-11-12T16:12:27.829Z,4.90
2023-11-12T16:15:31.215Z,4.79
2023-11-12T16:18:33.943Z,4.72
2023-11-12T16:21:36.773Z,4.71
2023-11-12T16:24:42.249Z,4.70
2023-11-12T16:27:45.061Z,4.57
2023-11-12T16:30:49.287Z,4.52
2023-11-12T16:33:53.775Z,4.46
2023-11-12T16:36:56.424Z,4.38
2023-11-12T16:40:00.777Z,4.34
2023-11-12T16:43:04.360Z,4.35
2023-11-12T16:46:07.006Z,4.18
2023-11-12T16:49:09.904Z,4.21
2023-11-12T16:52:12.465Z,4.15
2023-11-12T16:55:15.498Z,4.04
2023-11-12T16:58:17.995Z,3.93
2023-11-12T17:01:20.929Z,3.83
2023-11-12T17:04:25.088Z,3.73
2023-11-12T17:07:29.251Z,3.65
2023-11-12T17:10:32.003Z,3.63
2023-11-12T17:13:35.316Z,3.56
2023-11-12T17:16:44.059Z,3.53
2023-11-12T17:19:46.939Z,3.49
2023-11-12T17:22:50.378Z,3.39
2023-11-12T17:25:54.078Z,3.32
2023-11-12T17:29:00.490Z,3.37
2023-11-12T17:32:03.537Z,3.38
2023-11-12T17:35:06.599Z,3.29
2023-11-12T17:38:09.172Z,3.16
2023-11-12T17:41:11.660Z,3.10
2023-11-12T17:44:15.706Z,3.04
2023-11-12T17:47:18.504Z,2.96
2023-11-12T17:50:21.299Z,2.98
2023-11-12T17:53:25.312Z,3.00
2023-11-12T17:56:28.615Z,2.92
2023-11-12T17:59:31.603Z,2.90
2023-11-12T18:02:34.400Z,2.80
2023-11-12T18:05:37.538Z,2.71
2023-11-12T18:08:40.000Z,2.65
2023-11-12T18:11:46.257Z,2.59
2023-11-12T18:14:49.735Z,2.55
2023-11-12T18:17:52.678Z,2.49
2023-11-12T18:20:55.720Z,2.50
2023-11-12T18:23:58.395Z,2.42
2023-11-12T18:27:01.013Z,2.44
2023-11-12T18:30:06.724Z,2.49
2023-11-12T18:33:15.299Z,2.55
2023-11-12T18:36:18.201Z,2.50
2023-11-12T18:39:20.737Z,2.47
2023-11-12T18:42:25.125Z,2.33
2023-11-12T18:45:30.285Z,2.22
2023-11-12T18:48:34.229Z,2.21
2023-11-12T18:51:37.002Z,2.29
2023-11-12T18:54:39.571Z,2.21
2023-11-12T18:57:43.612Z,2.19
2023-11-12T19:00:46.352Z,2.06
2023-11-12T19:03:49.401Z,1.99
2023-11-12T19:06:52.027Z,1.93
2023-11-12T19:09:55.317Z,2.02
2023-11-12T19:12:58.006Z,1.97
2023-11-12T19:16:00.966Z,1.95
2023-11-12T19:19:04.520Z,1.80
2023-11-12T19:22:07.353Z,1.85
2023-11-12T19:25:16.198Z,1.77
2023-11-12T19:28:19.203Z,1.65
2023-11-12T19:31:30.606Z,1.55
2023-11-12T19:34:36.429Z,1.58
2023-11-12T19:37:39.981Z,1.55
2023-11-12T19:40:44.879Z,1.56
2023-11-12T19:43:48.618Z,1.60
2023-11-12T19:46:51.928Z,1.63
2023-11-12T19:49:54.686Z,1.70
2023-11-12T19:52:57.909Z,1.76
2023-11-12T19:56:00.790Z,1.71
2023-11-12T19:59:03.519Z,1.60
2023-11-12T20:02:07.648Z,1.53
2023-11-12T20:05:10.481Z,1.55
2023-11-12T20:08:13.288Z,1.58
2023-11-12T20:11:17.506Z,1.59
2023-11-12T20:14:22.621Z,1.61
2023-11-12T20:17:25.146Z,1.58
2023-11-12T20:20:27.686Z,1.46
2023-11-12T20:23:30.878Z,1.44
2023-11-12T20:26:34.765Z,1.39
2023-11-12T20:29:37.448Z,1.39
2023-11-12T20:32:42.831Z,1.35
2023-11-12T20:35:48.403Z,1.36
2023-11-12T20:38:52.427Z,1.28
2023-11-12T20:41:57.659Z,1.28
2023-11-12T20:45:01.743Z,1.28
2023-11-12T20:48:04.953Z,1.17
2023-11-12T20:51:09.415Z,1.19
2023-11-12T20:54:17.184Z,1.28
2023-11-12T20:57:19.908Z,1.32
2023-11-12T21:00:22.941Z,1.44
2023-11-12T21:03:26.035Z,1.50
2023-11-12T21:06:29.629Z,1.47
2023-11-12T21:09:33.507Z,1.53
2023-11-12T21:12:36.958Z,1.51
2023-11-12T21:15:41.689Z,1.60
2023-11-12T21:18:44.902Z,1.70
2023-11-12T21:21:50.341Z,1.78
2023-11-12T21:24:54.053Z,1.84
2023-11-12T21:27:56.584Z,1.82
2023-11-12T21:30:59.562Z,1.80
2023-11-12T21:34:02.321Z,1.85
2023-11-12T21:37:06.904Z,1.85
2023-11-12T21:40:09.967Z,1.79
2023-11-12T21:43:12.812Z,1.72
2023-11-12T21:46:17.067Z,1.63
2023-11-12T21:49:19.806Z,1.70
2023-11-12T21:52:24.198Z,1.73
2023-11-12T21:55:26.777Z,1.73
2023-11-12T21:58:29.522Z,1.78
2023-11-12T22:01:32.075Z,1.82
2023-11-12T22:04:34.612Z,1.77
2023-11-12T22:07:37.298Z,1.80
2023-11-12T22:10:39.896Z,1.87
2023-11-12T22:13:43.358Z,1.99
2023-11-12T22:16:46.286Z,2.03
2023-11-12T22:19:51.506Z,2.12
2023-11-12T22:22:56.806Z,2.22
2023-11-12T22:25:59.373Z,2.21
2023-11-12T22:29:01.992Z,2.31
2023-11-12T22:32:10.460Z,2.24
2023-11-12T22:35:13.049Z,2.20
2023-11-12T22:38:15.647Z,2.23
2023-11-12T22:41:19.429Z,2.30
2023-11-12T22:44:22.039Z,2.31
2023-11-12T22:47:26.248Z,2.36
2023-11-12T22:50:28.977Z,2.46
2023-11-12T22:53:31.519Z,2.48
2023-11-12T22:56:34.022Z,2.50
2023-11-12T22:59:36.855Z,2.43
2023-11-12T23:02:39.463Z,2.37
2023-11-12T23:05:43.393Z,2.27
2023-11-12T23:08:47.378Z,2.14
2023-11-12T23:11:49.858Z,2.18
2023-11-12T23:14:52.691Z,2.22
2023-11-12T23:17:55.253Z,2.41
2023-11-12T23:21:03.487Z,2.52
2023-11-12T23:24:11.818Z,2.57
2023-11-12T23:27:14.372Z,2.74
2023-11-12T23:30:17.258Z,2.79
2023-11-12T23:33:20.750Z,2.84
2023-11-12T23:36:23.316Z,2.91
2023-11-12T23:39:25.794Z,2.89
2023-11-12T23:42:28.598Z,2.90
2023-11-12T23:45:31.205Z,2.94
2023-11-12T23:48:35.149Z,2.90
2023-11-12T23:51:39.745Z,2.93
2023-11-12T23:54:43.396Z,2.87
2023-11-12T23:57:47.231Z,2.83
